createdAt,value
2022-09-14T00:03:42.243Z,17.29
2022-09-14T00:07:53.805Z,17.35
2022-09-14T00:12:05.487Z,17.34
2022-09-14T00:16:25.981Z,17.34
2022-09-14T00:20:39.078Z,17.39
2022-09-14T00:24:50.795Z,17.34
2022-09-14T00:29:04.859Z,17.33
2022-09-14T00:33:16.581Z,17.31
2022-09-14T00:37:28.142Z,17.36
2022-09-14T00:41:42.284Z,17.38
2022-09-14T00:45:54.125Z,17.40
2022-09-14T00:50:07.027Z,17.39
2022-09-14T00:54:19.722Z,17.41
2022-09-14T00:58:31.333Z,17.36
2022-09-14T01:02:42.945Z,17.32
2022-09-14T01:07:06.590Z,17.29
2022-09-14T01:11:33.921Z,17.28
2022-09-14T01:16:00.103Z,17.21
2022-09-14T01:20:11.675Z,17.24
2022-09-14T01:24:28.488Z,17.20
2022-09-14T01:29:01.312Z,17.16
2022-09-14T01:33:19.428Z,17.10
2022-09-14T01:37:41.349Z,17.09
2022-09-14T01:41:54.357Z,17.05
2022-09-14T01:46:26.493Z,17.07
2022-09-14T01:50:46.250Z,17.05
2022-09-14T01:55:04.358Z,17.07
2022-09-14T01:59:33.854Z,17.02
2022-09-14T02:03:53.938Z,17.03
2022-09-14T02:08:05.691Z,17.03
2022-09-14T02:12:17.773Z,17.01
2022-09-14T02:16:29.907Z,16.98
2022-09-14T02:20:53.682Z,16.99
2022-09-14T02:25:05.589Z,16.96
2022-09-14T02:29:17.310Z,16.97
2022-09-14T02:33:51.084Z,16.98
2022-09-14T02:38:15.669Z,16.95
2022-09-14T02:42:37.225Z,16.95
2022-09-14T02:47:04.363Z,16.89
2022-09-14T02:51:28.476Z,16.85
2022-09-14T02:55:46.595Z,16.89
2022-09-14T02:59:58.115Z,16.85
2022-09-14T03:04:09.673Z,16.80
2022-09-14T03:08:21.250Z,16.77
2022-09-14T03:12:32.814Z,16.71
2022-09-14T03:16:44.510Z,16.69
2022-09-14T03:21:02.662Z,16.66
2022-09-14T03:25:14.812Z,16.57
2022-09-14T03:29:26.379Z,16.49
2022-09-14T03:33:38.116Z,16.48
2022-09-14T03:37:49.710Z,16.48
2022-09-14T03:42:01.243Z,16.46
2022-09-14T03:46:18.401Z,16.44
2022-09-14T03:50:30.018Z,16.46
2022-09-14T03:54:41.606Z,16.42
2022-09-14T03:58:53.152Z,16.46
2022-09-14T04:03:04.779Z,16.46
2022-09-14T04:07:16.765Z,16.42
2022-09-14T04:11:30.723Z,16.39
2022-09-14T04:15:42.322Z,16.36
2022-09-14T04:19:53.870Z,16.38
2022-09-14T04:24:21.402Z,16.40
2022-09-14T04:28:33.584Z,16.42
2022-09-14T04:32:45.128Z,16.38
2022-09-14T04:36:56.641Z,16.40
2022-09-14T04:41:13.995Z,16.34
2022-09-14T04:45:26.913Z,16.32
2022-09-14T04:49:38.542Z,16.29
2022-09-14T04:53:52.558Z,16.30
2022-09-14T04:58:04.801Z,16.31
2022-09-14T05:02:16.463Z,16.24
2022-09-14T05:06:31.412Z,16.20
2022-09-14T05:10:43.088Z,16.19
2022-09-14T05:14:54.675Z,16.20
2022-09-14T05:19:09.395Z,16.20
2022-09-14T05:23:21.022Z,16.23
2022-09-14T05:27:32.589Z,16.18
2022-09-14T05:31:44.408Z,16.16
2022-09-14T05:36:02.041Z,16.16
2022-09-14T05:40:13.744Z,16.15
2022-09-14T05:44:25.322Z,16.12
2022-09-14T05:48:38.629Z,16.15
2022-09-14T05:52:51.510Z,16.09
2022-09-14T05:57:03.117Z,16.09
2022-09-14T06:01:23.770Z,16.07
2022-09-14T06:05:35.773Z,16.09
2022-09-14T06:09:47.807Z,16.06
2022-09-14T06:14:00.489Z,16.04
2022-09-14T06:18:12.200Z,16.07
2022-09-14T06:22:23.926Z,16.09
2022-09-14T06:26:35.537Z,16.22
2022-09-14T06:30:47.096Z,16.20
2022-09-14T06:34:58.754Z,16.27
2022-09-14T06:39:10.941Z,16.25
2022-09-14T06:43:31.215Z,16.26
2022-09-14T06:47:42.709Z,16.21
2022-09-14T06:51:56.505Z,16.25
2022-09-14T06:56:07.974Z,16.27
2022-09-14T07:00:19.466Z,16.29
2022-09-14T07:04:30.941Z,16.32
2022-09-14T07:08:43.580Z,16.33
2022-09-14T07:12:55.333Z,16.31
2022-09-14T07:17:06.817Z,16.36
2022-09-14T07:21:20.521Z,16.42
2022-09-14T07:25:31.987Z,16.40
2022-09-14T07:29:43.461Z,16.47
2022-09-14T07:33:57.159Z,16.55
2022-09-14T07:38:08.666Z,16.58
2022-09-14T07:42:20.218Z,16.58
2022-09-14T07:46:38.164Z,16.59
2022-09-14T07:51:00.582Z,16.58
2022-09-14T07:55:12.497Z,16.60
2022-09-14T07:59:35.565Z,16.67
2022-09-14T08:03:48.954Z,16.79
2022-09-14T08:08:00.535Z,16.84
2022-09-14T08:12:12.163Z,16.86
2022-09-14T08:16:24.992Z,16.91
2022-09-14T08:20:36.540Z,16.90
2022-09-14T08:24:48.030Z,16.89
2022-09-14T08:29:00.541Z,16.90
2022-09-14T08:33:12.422Z,16.82
2022-09-14T08:37:23.859Z,16.89
2022-09-14T08:41:38.200Z,16.92
2022-09-14T08:45:53.201Z,16.96
2022-09-14T08:50:10.756Z,16.97
2022-09-14T08:54:22.522Z,17.01
2022-09-14T08:58:52.741Z,17.08
2022-09-14T09:03:15.064Z,17.13
2022-09-14T09:07:53.797Z,17.19
2022-09-14T09:12:06.268Z,17.24
2022-09-14T09:16:22.114Z,17.25
2022-09-14T09:20:39.968Z,17.29
2022-09-14T09:24:54.820Z,17.30
2022-09-14T09:29:09.724Z,17.31
2022-09-14T09:33:39.744Z,17.38
2022-09-14T09:38:13.153Z,17.41
2022-09-14T09:42:27.980Z,17.43
2022-09-14T09:46:46.620Z,17.38
2022-09-14T09:51:03.437Z,17.44
2022-09-14T09:55:20.247Z,17.44
2022-09-14T09:59:36.341Z,17.46
2022-09-14T10:04:19.329Z,17.48
2022-09-14T10:08:35.087Z,17.46
2022-09-14T10:12:49.361Z,17.50
2022-09-14T10:17:22.153Z,17.44
2022-09-14T10:21:56.619Z,17.45
2022-09-14T10:26:14.094Z,17.60
2022-09-14T10:30:29.755Z,17.65
2022-09-14T10:34:41.232Z,17.79
2022-09-14T10:38:58.348Z,17.89
2022-09-14T10:43:36.000Z,18.00
2022-09-14T10:48:15.112Z,18.07
2022-09-14T10:53:01.453Z,18.18
2022-09-14T10:57:31.580Z,18.32
2022-09-14T11:02:17.644Z,18.35
2022-09-14T11:06:37.960Z,18.37
2022-09-14T11:11:27.270Z,18.42
2022-09-14T11:15:48.521Z,18.43
2022-09-14T11:20:26.354Z,18.44
2022-09-14T11:24:53.524Z,18.41
2022-09-14T11:29:21.041Z,18.51
2022-09-14T11:33:51.017Z,18.53
2022-09-14T11:38:11.200Z,18.61
2022-09-14T11:42:28.597Z,18.64
2022-09-14T11:46:45.434Z,18.69
2022-09-14T11:51:11.048Z,18.77
2022-09-14T11:55:23.185Z,18.76
2022-09-14T11:59:34.644Z,18.90
2022-09-14T12:04:01.202Z,19.03
2022-09-14T12:08:31.151Z,19.22
2022-09-14T12:12:58.146Z,19.37
2022-09-14T12:17:38.356Z,19.49
2022-09-14T12:21:49.203Z,19.53
2022-09-14T12:26:02.658Z,19.55
2022-09-14T12:30:38.284Z,19.57
2022-09-14T12:35:29.720Z,19.61
2022-09-14T12:40:19.411Z,19.62
2022-09-14T12:44:42.872Z,19.74
2022-09-14T12:48:58.459Z,19.88
2022-09-14T12:53:19.282Z,20.02
2022-09-14T12:57:46.661Z,20.04
2022-09-14T13:02:35.668Z,20.16
2022-09-14T13:06:48.430Z,20.34
2022-09-14T13:10:59.972Z,20.43
2022-09-14T13:15:25.501Z,20.45
2022-09-14T13:19:37.020Z,20.46
2022-09-14T13:23:48.679Z,20.49
2022-09-14T13:28:02.667Z,20.50
2022-09-14T13:32:20.735Z,20.55
2022-09-14T13:36:36.575Z,20.49
2022-09-14T13:40:50.458Z,20.52
2022-09-14T13:45:02.186Z,20.67
2022-09-14T13:49:13.844Z,20.72
2022-09-14T13:53:50.176Z,20.95
2022-09-14T13:58:21.078Z,21.11
2022-09-14T14:02:35.181Z,21.44
2022-09-14T14:07:01.458Z,21.45
2022-09-14T14:11:12.984Z,21.33
2022-09-14T14:15:24.486Z,21.12
2022-09-14T14:19:36.344Z,20.99
2022-09-14T14:24:09.543Z,20.83
2022-09-14T14:28:27.133Z,20.79
2022-09-14T14:32:38.699Z,20.83
2022-09-14T14:36:50.390Z,20.81
2022-09-14T14:41:02.387Z,20.83
2022-09-14T14:45:36.195Z,20.93
2022-09-14T14:49:48.166Z,20.88
2022-09-14T14:54:01.230Z,20.88
2022-09-14T14:58:16.524Z,20.79
2022-09-14T15:02:28.182Z,20.87
2022-09-14T15:06:40.415Z,20.90
2022-09-14T15:10:56.907Z,20.92
2022-09-14T15:15:18.088Z,20.91
2022-09-14T15:19:29.703Z,20.80
2022-09-14T15:23:41.575Z,20.71
2022-09-14T15:27:53.332Z,20.81
2022-09-14T15:32:05.179Z,20.71
2022-09-14T15:36:36.544Z,20.76
2022-09-14T15:40:48.073Z,20.66
2022-09-14T15:44:59.639Z,20.66
2022-09-14T15:49:20.534Z,20.57
2022-09-14T15:53:32.241Z,20.45
2022-09-14T15:57:43.950Z,20.37
2022-09-14T16:01:55.935Z,20.27
2022-09-14T16:06:07.729Z,20.30
2022-09-14T16:10:19.418Z,20.24
2022-09-14T16:14:31.365Z,20.11
2022-09-14T16:18:43.216Z,20.07
2022-09-14T16:22:54.832Z,20.04
2022-09-14T16:27:06.549Z,19.99
2022-09-14T16:31:24.168Z,19.99
2022-09-14T16:35:35.761Z,19.84
2022-09-14T16:39:49.044Z,19.73
2022-09-14T16:44:02.361Z,19.65
2022-09-14T16:48:13.970Z,19.52
2022-09-14T16:52:25.565Z,19.43
2022-09-14T16:56:38.693Z,19.37
2022-09-14T17:00:50.693Z,19.42
2022-09-14T17:05:02.584Z,19.26
2022-09-14T17:09:18.297Z,19.19
2022-09-14T17:13:30.876Z,19.13
2022-09-14T17:17:42.442Z,19.11
2022-09-14T17:21:54.049Z,18.95
2022-09-14T17:26:08.845Z,18.83
2022-09-14T17:30:20.423Z,18.82
2022-09-14T17:34:31.943Z,18.61
2022-09-14T17:38:44.565Z,18.60
2022-09-14T17:42:56.417Z,18.50
2022-09-14T17:47:07.996Z,18.35
2022-09-14T17:51:22.735Z,18.20
2022-09-14T17:55:34.371Z,18.15
2022-09-14T17:59:46.278Z,18.15
2022-09-14T18:04:01.702Z,18.12
2022-09-14T18:08:13.472Z,18.06
2022-09-14T18:12:25.048Z,18.04
2022-09-14T18:16:36.592Z,18.01
2022-09-14T18:20:49.068Z,17.96
2022-09-14T18:25:00.629Z,17.83
2022-09-14T18:29:18.397Z,17.70
2022-09-14T18:33:30.207Z,17.59
2022-09-14T18:38:07.671Z,17.47
2022-09-14T18:42:19.184Z,17.28
2022-09-14T18:46:31.140Z,17.25
2022-09-14T18:50:43.321Z,17.16
2022-09-14T18:54:54.850Z,17.09
2022-09-14T18:59:10.068Z,17.12
2022-09-14T19:03:21.605Z,16.95
2022-09-14T19:07:35.851Z,16.89
2022-09-14T19:11:47.382Z,16.82
2022-09-14T19:15:59.029Z,16.77
2022-09-14T19:20:11.390Z,16.68
2022-09-14T19:24:22.965Z,16.68
2022-09-14T19:28:35.564Z,16.67
2022-09-14T19:32:47.302Z,16.63
2022-09-14T19:36:58.898Z,16.61
2022-09-14T19:41:10.697Z,16.55
2022-09-14T19:45:22.293Z,16.48
2022-09-14T19:49:33.923Z,16.43
2022-09-14T19:53:48.797Z,16.43
2022-09-14T19:58:00.396Z,16.40
2022-09-14T20:02:12.024Z,16.38
2022-09-14T20:06:29.592Z,16.33
2022-09-14T20:10:41.195Z,16.32
2022-09-14T20:14:52.818Z,16.22
2022-09-14T20:19:15.869Z,16.14
2022-09-14T20:23:27.474Z,16.06
2022-09-14T20:27:39.080Z,16.02
2022-09-14T20:31:51.470Z,16.02
2022-09-14T20:36:10.244Z,15.96
2022-09-14T20:40:21.776Z,15.98
2022-09-14T20:44:33.748Z,16.09
2022-09-14T20:48:46.657Z,16.13
2022-09-14T20:52:58.294Z,16.05
2022-09-14T20:57:09.935Z,15.93
2022-09-14T21:01:23.529Z,15.77
2022-09-14T21:05:35.051Z,15.63
2022-09-14T21:09:46.528Z,15.57
2022-09-14T21:13:58.488Z,15.51
2022-09-14T21:18:09.985Z,15.44
2022-09-14T21:22:21.508Z,15.37
2022-09-14T21:26:33.980Z,15.32
2022-09-14T21:30:45.565Z,15.27
2022-09-14T21:34:57.050Z,15.27
2022-09-14T21:39:17.188Z,15.31
2022-09-14T21:43:28.950Z,15.40
2022-09-14T21:47:40.423Z,15.48
2022-09-14T21:51:52.102Z,15.47
2022-09-14T21:56:05.524Z,15.41
2022-09-14T22:00:20.765Z,15.28
2022-09-14T22:04:32.263Z,15.16
2022-09-14T22:08:44.285Z,15.10
2022-09-14T22:12:55.783Z,15.09
2022-09-14T22:17:07.265Z,15.10
2022-09-14T22:21:19.743Z,15.03
2022-09-14T22:25:33.652Z,14.94
2022-09-14T22:29:45.357Z,14.83
2022-09-14T22:33:57.915Z,14.74
2022-09-14T22:38:09.401Z,14.66
2022-09-14T22:42:21.334Z,14.57
2022-09-14T22:46:33.544Z,14.58
2022-09-14T22:50:48.878Z,14.54
2022-09-14T22:55:00.336Z,14.46
2022-09-14T22:59:11.868Z,14.43
2022-09-14T23:03:23.391Z,14.38
2022-09-14T23:07:35.122Z,14.33
2022-09-14T23:11:47.318Z,14.21
2022-09-14T23:16:00.961Z,14.18
2022-09-14T23:20:12.489Z,14.18
2022-09-14T23:24:24.065Z,14.14
2022-09-14T23:28:36.782Z,14.08
2022-09-14T23:32:48.263Z,14.01
2022-09-14T23:37:01.515Z,14.00
2022-09-14T23:41:12.976Z,13.94
2022-09-14T23:45:24.535Z,13.89
2022-09-14T23:49:36.171Z,13.91
2022-09-14T23:53:47.902Z,14.08
2022-09-14T23:57:59.473Z,14.22
